sensor_id;sensor_type;location;lat;lon;timestamp;pressure;altitude;pressure_sealevel;temperature;humidity
67430;BME280;54298;52.076;5.264;2023-05-01T00:00:36;101781.0;;;9.49;76.19
67430;BME280;54298;52.076;5.264;2023-05-01T00:02:13;101780.0;;;9.31;77.0
67430;BME280;54298;52.076;5.264;2023-05-01T00:03:49;101770.0;;;9.41;76.58
67430;BME280;54298;52.076;5.264;2023-05-01T00:07:02;101772.0;;;9.46;76.36
67430;BME280;54298;52.076;5.264;2023-05-01T00:08:39;101766.0;;;9.61;75.49
67430;BME280;54298;52.076;5.264;2023-05-01T00:10:15;101765.0;;;9.66;75.08
67430;BME280;54298;52.076;5.264;2023-05-01T00:13:28;101761.0;;;9.64;75.3
67430;BME280;54298;52.076;5.264;2023-05-01T00:15:06;101762.0;;;9.71;74.99
67430;BME280;54298;52.076;5.264;2023-05-01T00:16:43;101758.0;;;9.52;75.58
67430;BME280;54298;52.076;5.264;2023-05-01T00:18:20;101759.0;;;9.35;75.98
67430;BME280;54298;52.076;5.264;2023-05-01T00:21:33;101755.0;;;9.39;76.14
67430;BME280;54298;52.076;5.264;2023-05-01T00:23:09;101747.0;;;9.31;76.3
67430;BME280;54298;52.076;5.264;2023-05-01T00:24:46;101745.0;;;9.32;76.16
67430;BME280;54298;52.076;5.264;2023-05-01T00:27:59;101740.0;;;9.27;76.36
67430;BME280;54298;52.076;5.264;2023-05-01T00:29:35;101735.0;;;9.23;76.48
67430;BME280;54298;52.076;5.264;2023-05-01T00:31:12;101741.0;;;9.16;76.98
67430;BME280;54298;52.076;5.264;2023-05-01T00:34:25;101742.0;;;9.08;77.27
67430;BME280;54298;52.076;5.264;2023-05-01T00:36:02;101739.0;;;9.15;77.14
67430;BME280;54298;52.076;5.264;2023-05-01T00:37:39;101732.0;;;9.14;77.11
67430;BME280;54298;52.076;5.264;2023-05-01T00:39:15;101730.0;;;9.09;77.12
67430;BME280;54298;52.076;5.264;2023-05-01T00:42:33;101725.0;;;9.13;76.86
67430;BME280;54298;52.076;5.264;2023-05-01T00:44:09;101723.0;;;9.13;76.98
67430;BME280;54298;52.076;5.264;2023-05-01T00:45:45;101720.0;;;9.11;76.95
67430;BME280;54298;52.076;5.264;2023-05-01T00:48:59;101718.0;;;9.09;77.09
67430;BME280;54298;52.076;5.264;2023-05-01T00:50:35;101711.0;;;9.17;76.69
67430;BME280;54298;52.076;5.264;2023-05-01T00:52:12;101708.0;;;9.13;76.61
67430;BME280;54298;52.076;5.264;2023-05-01T00:55:27;101699.0;;;9.23;76.17
67430;BME280;54298;52.076;5.264;2023-05-01T00:57:04;101703.0;;;9.05;76.78
67430;BME280;54298;52.076;5.264;2023-05-01T00:58:41;101700.0;;;9.02;76.87
67430;BME280;54298;52.076;5.264;2023-05-01T01:00:18;101699.0;;;9.06;76.52
67430;BME280;54298;52.076;5.264;2023-05-01T01:03:33;101701.0;;;9.01;76.8
67430;BME280;54298;52.076;5.264;2023-05-01T01:05:10;101698.0;;;8.94;77.0
67430;BME280;54298;52.076;5.264;2023-05-01T01:06:52;101694.0;;;8.83;77.28
67430;BME280;54298;52.076;5.264;2023-05-01T01:08:34;101690.0;;;8.81;77.59
67430;BME280;54298;52.076;5.264;2023-05-01T01:12:10;101685.0;;;8.81;77.7
67430;BME280;54298;52.076;5.264;2023-05-01T01:13:57;101684.0;;;8.89;77.31
67430;BME280;54298;52.076;5.264;2023-05-01T01:15:39;101680.0;;;8.84;77.44
67430;BME280;54298;52.076;5.264;2023-05-01T01:17:25;101677.0;;;8.82;77.48
67430;BME280;54298;52.076;5.264;2023-05-01T01:19:22;101674.0;;;8.74;77.75
67430;BME280;54298;52.076;5.264;2023-05-01T01:21:07;101669.0;;;8.8;77.47
67430;BME280;54298;52.076;5.264;2023-05-01T01:24:45;101666.0;;;8.82;77.23
67430;BME280;54298;52.076;5.264;2023-05-01T01:26:45;101665.0;;;8.8;77.36
67430;BME280;54298;52.076;5.264;2023-05-01T01:29:02;101662.0;;;8.81;77.38
67430;BME280;54298;52.076;5.264;2023-05-01T01:31:32;101655.0;;;8.88;77.14
67430;BME280;54298;52.076;5.264;2023-05-01T01:35:26;101646.0;;;8.92;76.75
67430;BME280;54298;52.076;5.264;2023-05-01T01:37:09;101648.0;;;8.78;77.11
67430;BME280;54298;52.076;5.264;2023-05-01T01:39:02;101645.0;;;8.61;77.77
67430;BME280;54298;52.076;5.264;2023-05-01T01:40:48;101640.0;;;8.72;77.74
67430;BME280;54298;52.076;5.264;2023-05-01T01:42:35;101631.0;;;8.81;77.5
67430;BME280;54298;52.076;5.264;2023-05-01T01:44:16;101633.0;;;8.78;77.3
67430;BME280;54298;52.076;5.264;2023-05-01T01:47:43;101627.0;;;8.84;76.88
67430;BME280;54298;52.076;5.264;2023-05-01T01:49:22;101621.0;;;8.89;76.69
67430;BME280;54298;52.076;5.264;2023-05-01T01:51:05;101624.0;;;8.69;77.41
67430;BME280;54298;52.076;5.264;2023-05-01T01:52:46;101621.0;;;8.74;77.36
67430;BME280;54298;52.076;5.264;2023-05-01T01:56:07;101620.0;;;8.85;77.16
67430;BME280;54298;52.076;5.264;2023-05-01T01:57:44;101611.0;;;8.94;76.98
67430;BME280;54298;52.076;5.264;2023-05-01T01:59:24;101612.0;;;8.81;77.05
67430;BME280;54298;52.076;5.264;2023-05-01T02:01:00;101607.0;;;8.77;77.48
67430;BME280;54298;52.076;5.264;2023-05-01T02:04:16;101605.0;;;8.83;77.24
67430;BME280;54298;52.076;5.264;2023-05-01T02:05:55;101605.0;;;8.81;77.37
67430;BME280;54298;52.076;5.264;2023-05-01T02:07:34;101601.0;;;8.89;77.45
67430;BME280;54298;52.076;5.264;2023-05-01T02:09:14;101598.0;;;8.96;77.58
67430;BME280;54298;52.076;5.264;2023-05-01T02:12:32;101596.0;;;8.97;77.27
67430;BME280;54298;52.076;5.264;2023-05-01T02:14:10;101598.0;;;8.86;77.64
67430;BME280;54298;52.076;5.264;2023-05-01T02:15:47;101594.0;;;8.93;77.44
67430;BME280;54298;52.076;5.264;2023-05-01T02:19:03;101590.0;;;8.8;78.28
67430;BME280;54298;52.076;5.264;2023-05-01T02:20:41;101591.0;;;8.93;78.16
67430;BME280;54298;52.076;5.264;2023-05-01T02:22:19;101590.0;;;9.0;78.22
67430;BME280;54298;52.076;5.264;2023-05-01T02:23:59;101582.0;;;9.02;78.19
67430;BME280;54298;52.076;5.264;2023-05-01T02:27:19;101581.0;;;8.93;78.52
67430;BME280;54298;52.076;5.264;2023-05-01T02:28:55;101577.0;;;9.0;78.3
67430;BME280;54298;52.076;5.264;2023-05-01T02:30:31;101578.0;;;9.13;78.08
67430;BME280;54298;52.076;5.264;2023-05-01T02:33:44;101572.0;;;9.21;77.61
67430;BME280;54298;52.076;5.264;2023-05-01T02:35:20;101574.0;;;9.09;78.02
67430;BME280;54298;52.076;5.264;2023-05-01T02:36:56;101569.0;;;9.01;77.87
67430;BME280;54298;52.076;5.264;2023-05-01T02:38:32;101565.0;;;8.92;78.31
67430;BME280;54298;52.076;5.264;2023-05-01T02:41:47;101562.0;;;8.94;78.17
67430;BME280;54298;52.076;5.264;2023-05-01T02:43:26;101565.0;;;9.03;77.95
67430;BME280;54298;52.076;5.264;2023-05-01T02:45:06;101561.0;;;9.22;77.08
67430;BME280;54298;52.076;5.264;2023-05-01T02:48:25;101560.0;;;9.11;76.61
67430;BME280;54298;52.076;5.264;2023-05-01T02:50:04;101559.0;;;9.19;76.55
67430;BME280;54298;52.076;5.264;2023-05-01T02:51:43;101556.0;;;9.23;76.67
67430;BME280;54298;52.076;5.264;2023-05-01T02:53:20;101551.0;;;9.22;77.02
67430;BME280;54298;52.076;5.264;2023-05-01T02:56:33;101551.0;;;9.25;77.25
67430;BME280;54298;52.076;5.264;2023-05-01T02:58:14;101551.0;;;9.25;77.11
67430;BME280;54298;52.076;5.264;2023-05-01T02:59:51;101547.0;;;9.24;77.22
67430;BME280;54298;52.076;5.264;2023-05-01T03:03:04;101542.0;;;9.24;77.42
67430;BME280;54298;52.076;5.264;2023-05-01T03:04:40;101542.0;;;9.32;77.31
67430;BME280;54298;52.076;5.264;2023-05-01T03:06:16;101538.0;;;9.31;76.99
67430;BME280;54298;52.076;5.264;2023-05-01T03:07:52;101542.0;;;9.25;77.23
67430;BME280;54298;52.076;5.264;2023-05-01T03:11:05;101543.0;;;9.26;77.5
67430;BME280;54298;52.076;5.264;2023-05-01T03:12:42;101540.0;;;9.25;77.33
67430;BME280;54298;52.076;5.264;2023-05-01T03:14:18;101541.0;;;9.3;77.22
67430;BME280;54298;52.076;5.264;2023-05-01T03:17:31;101533.0;;;9.43;76.48
67430;BME280;54298;52.076;5.264;2023-05-01T03:19:07;101530.0;;;9.56;75.91
67430;BME280;54298;52.076;5.264;2023-05-01T03:20:50;101531.0;;;9.56;75.91
67430;BME280;54298;52.076;5.264;2023-05-01T03:22:28;101522.0;;;9.59;75.55
67430;BME280;54298;52.076;5.264;2023-05-01T03:25:42;101523.0;;;9.65;75.72
67430;BME280;54298;52.076;5.264;2023-05-01T03:27:18;101516.0;;;9.66;75.63
67430;BME280;54298;52.076;5.264;2023-05-01T03:28:54;101516.0;;;9.74;75.33
67430;BME280;54298;52.076;5.264;2023-05-01T03:32:08;101513.0;;;9.78;75.19
67430;BME280;54298;52.076;5.264;2023-05-01T03:33:44;101513.0;;;9.77;75.06
67430;BME280;54298;52.076;5.264;2023-05-01T03:35:20;101510.0;;;9.77;75.36
67430;BME280;54298;52.076;5.264;2023-05-01T03:38:33;101510.0;;;9.81;75.36
67430;BME280;54298;52.076;5.264;2023-05-01T03:40:09;101511.0;;;9.85;75.11
67430;BME280;54298;52.076;5.264;2023-05-01T03:41:46;101505.0;;;9.89;75.23
67430;BME280;54298;52.076;5.264;2023-05-01T03:43:22;101503.0;;;9.78;75.27
67430;BME280;54298;52.076;5.264;2023-05-01T03:46:35;101507.0;;;9.81;75.44
67430;BME280;54298;52.076;5.264;2023-05-01T03:48:11;101502.0;;;9.83;75.3
67430;BME280;54298;52.076;5.264;2023-05-01T03:49:47;101502.0;;;9.73;75.67
67430;BME280;54298;52.076;5.264;2023-05-01T03:53:00;101494.0;;;9.76;75.55
67430;BME280;54298;52.076;5.264;2023-05-01T03:54:36;101496.0;;;9.93;74.87
67430;BME280;54298;52.076;5.264;2023-05-01T03:56:12;101494.0;;;9.8;75.33
67430;BME280;54298;52.076;5.264;2023-05-01T03:59:24;101493.0;;;9.72;75.55
67430;BME280;54298;52.076;5.264;2023-05-01T04:01:00;101488.0;;;9.89;75.11
67430;BME280;54298;52.076;5.264;2023-05-01T04:02:37;101489.0;;;9.94;74.36
67430;BME280;54298;52.076;5.264;2023-05-01T04:09:13;101486.0;;;9.97;74.41
67430;BME280;54298;52.076;5.264;2023-05-01T04:10:49;101483.0;;;10.0;73.83
67430;BME280;54298;52.076;5.264;2023-05-01T04:14:00;101483.0;;;10.07;73.62
67430;BME280;54298;52.076;5.264;2023-05-01T04:15:36;101482.0;;;10.1;73.87
67430;BME280;54298;52.076;5.264;2023-05-01T04:17:13;101477.0;;;10.14;74.45
67430;BME280;54298;52.076;5.264;2023-05-01T04:20:25;101477.0;;;10.26;74.11
67430;BME280;54298;52.076;5.264;2023-05-01T04:22:01;101481.0;;;10.09;74.33
67430;BME280;54298;52.076;5.264;2023-05-01T04:23:37;101478.0;;;10.05;73.8
67430;BME280;54298;52.076;5.264;2023-05-01T04:25:13;101473.0;;;10.06;73.72
67430;BME280;54298;52.076;5.264;2023-05-01T04:28:25;101478.0;;;10.15;73.55
67430;BME280;54298;52.076;5.264;2023-05-01T04:30:02;101475.0;;;10.18;72.99
67430;BME280;54298;52.076;5.264;2023-05-01T04:31:38;101474.0;;;10.14;73.02
67430;BME280;54298;52.076;5.264;2023-05-01T04:34:50;101472.0;;;10.19;72.64
67430;BME280;54298;52.076;5.264;2023-05-01T04:36:26;101469.0;;;10.16;72.78
67430;BME280;54298;52.076;5.264;2023-05-01T04:38:02;101469.0;;;10.14;71.75
67430;BME280;54298;52.076;5.264;2023-05-01T04:41:14;101476.0;;;10.16;73.31
67430;BME280;54298;52.076;5.264;2023-05-01T04:42:51;101476.0;;;10.31;74.0
67430;BME280;54298;52.076;5.264;2023-05-01T04:44:27;101483.0;;;10.23;74.94
67430;BME280;54298;52.076;5.264;2023-05-01T04:46:03;101477.0;;;10.39;74.47
67430;BME280;54298;52.076;5.264;2023-05-01T04:49:15;101480.0;;;10.28;74.19
67430;BME280;54298;52.076;5.264;2023-05-01T04:50:51;101477.0;;;10.28;74.17
67430;BME280;54298;52.076;5.264;2023-05-01T04:52:27;101476.0;;;10.33;74.45
67430;BME280;54298;52.076;5.264;2023-05-01T04:55:40;101472.0;;;10.31;74.66
67430;BME280;54298;52.076;5.264;2023-05-01T04:57:16;101482.0;;;10.39;74.44
67430;BME280;54298;52.076;5.264;2023-05-01T04:58:52;101480.0;;;10.17;73.8
67430;BME280;54298;52.076;5.264;2023-05-01T05:02:04;101478.0;;;10.17;74.13
67430;BME280;54298;52.076;5.264;2023-05-01T05:03:41;101471.0;;;10.23;73.61
67430;BME280;54298;52.076;5.264;2023-05-01T05:05:18;101480.0;;;10.24;73.34
67430;BME280;54298;52.076;5.264;2023-05-01T05:08:31;101478.0;;;10.32;72.8
67430;BME280;54298;52.076;5.264;2023-05-01T05:10:07;101477.0;;;10.48;72.53
67430;BME280;54298;52.076;5.264;2023-05-01T05:11:43;101480.0;;;10.52;72.3
67430;BME280;54298;52.076;5.264;2023-05-01T05:13:19;101473.0;;;10.54;72.12
67430;BME280;54298;52.076;5.264;2023-05-01T05:16:31;101475.0;;;10.58;72.59
67430;BME280;54298;52.076;5.264;2023-05-01T05:18:07;101475.0;;;10.55;72.56
67430;BME280;54298;52.076;5.264;2023-05-01T05:19:44;101472.0;;;10.58;72.86
67430;BME280;54298;52.076;5.264;2023-05-01T05:22:56;101478.0;;;10.56;73.33
67430;BME280;54298;52.076;5.264;2023-05-01T05:24:32;101477.0;;;10.62;73.14
67430;BME280;54298;52.076;5.264;2023-05-01T05:26:08;101477.0;;;10.67;71.31
67430;BME280;54298;52.076;5.264;2023-05-01T05:29:20;101467.0;;;10.59;70.73
67430;BME280;54298;52.076;5.264;2023-05-01T05:30:56;101470.0;;;10.65;70.67
67430;BME280;54298;52.076;5.264;2023-05-01T05:32:33;101470.0;;;10.63;71.12
67430;BME280;54298;52.076;5.264;2023-05-01T05:35:45;101473.0;;;10.66;71.49
67430;BME280;54298;52.076;5.264;2023-05-01T05:37:21;101464.0;;;10.54;69.97
67430;BME280;54298;52.076;5.264;2023-05-01T05:38:58;101471.0;;;10.55;69.63
67430;BME280;54298;52.076;5.264;2023-05-01T05:40:34;101468.0;;;10.58;69.72
67430;BME280;54298;52.076;5.264;2023-05-01T05:43:46;101467.0;;;10.75;69.3
67430;BME280;54298;52.076;5.264;2023-05-01T05:45:22;101469.0;;;10.86;69.37
67430;BME280;54298;52.076;5.264;2023-05-01T05:46:58;101467.0;;;10.95;68.88
67430;BME280;54298;52.076;5.264;2023-05-01T05:50:11;101464.0;;;11.06;68.0
67430;BME280;54298;52.076;5.264;2023-05-01T05:51:47;101464.0;;;11.04;67.36
67430;BME280;54298;52.076;5.264;2023-05-01T05:53:23;101463.0;;;11.04;67.47
67430;BME280;54298;52.076;5.264;2023-05-01T05:56:36;101459.0;;;11.09;67.75
67430;BME280;54298;52.076;5.264;2023-05-01T05:58:13;101456.0;;;11.15;67.73
67430;BME280;54298;52.076;5.264;2023-05-01T05:59:49;101458.0;;;11.03;68.19
67430;BME280;54298;52.076;5.264;2023-05-01T06:01:25;101461.0;;;11.16;67.31
67430;BME280;54298;52.076;5.264;2023-05-01T06:04:38;101457.0;;;11.18;67.05
67430;BME280;54298;52.076;5.264;2023-05-01T06:06:14;101456.0;;;11.29;66.91
67430;BME280;54298;52.076;5.264;2023-05-01T06:07:51;101455.0;;;11.22;67.31
67430;BME280;54298;52.076;5.264;2023-05-01T06:11:03;101457.0;;;11.19;66.94
67430;BME280;54298;52.076;5.264;2023-05-01T06:12:39;101455.0;;;11.33;66.39
67430;BME280;54298;52.076;5.264;2023-05-01T06:14:15;101457.0;;;11.43;65.78
67430;BME280;54298;52.076;5.264;2023-05-01T06:17:27;101459.0;;;11.58;65.53
67430;BME280;54298;52.076;5.264;2023-05-01T06:19:03;101449.0;;;11.73;64.64
67430;BME280;54298;52.076;5.264;2023-05-01T06:20:39;101451.0;;;11.83;64.53
67430;BME280;54298;52.076;5.264;2023-05-01T06:23:51;101450.0;;;11.95;65.02
67430;BME280;54298;52.076;5.264;2023-05-01T06:25:27;101440.0;;;11.99;63.5
67430;BME280;54298;52.076;5.264;2023-05-01T06:27:04;101440.0;;;12.07;62.97
67430;BME280;54298;52.076;5.264;2023-05-01T06:28:40;101442.0;;;12.14;63.23
67430;BME280;54298;52.076;5.264;2023-05-01T06:31:52;101439.0;;;12.18;63.13
67430;BME280;54298;52.076;5.264;2023-05-01T06:33:28;101441.0;;;12.23;63.95
67430;BME280;54298;52.076;5.264;2023-05-01T06:35:05;101442.0;;;12.22;62.91
67430;BME280;54298;52.076;5.264;2023-05-01T06:38:17;101446.0;;;12.2;63.26
67430;BME280;54298;52.076;5.264;2023-05-01T06:39:54;101444.0;;;12.36;63.39
67430;BME280;54298;52.076;5.264;2023-05-01T06:41:30;101445.0;;;12.46;62.54
67430;BME280;54298;52.076;5.264;2023-05-01T06:44:42;101442.0;;;12.49;62.05
67430;BME280;54298;52.076;5.264;2023-05-01T06:46:18;101436.0;;;12.53;61.44
67430;BME280;54298;52.076;5.264;2023-05-01T06:47:54;101432.0;;;12.51;61.21
67430;BME280;54298;52.076;5.264;2023-05-01T06:49:30;101435.0;;;12.54;61.02
67430;BME280;54298;52.076;5.264;2023-05-01T06:52:42;101435.0;;;12.51;61.15
67430;BME280;54298;52.076;5.264;2023-05-01T06:54:19;101431.0;;;12.54;61.6
67430;BME280;54298;52.076;5.264;2023-05-01T06:55:55;101430.0;;;12.66;61.35
67430;BME280;54298;52.076;5.264;2023-05-01T06:59:07;101430.0;;;12.7;60.73
67430;BME280;54298;52.076;5.264;2023-05-01T07:00:44;101438.0;;;12.78;60.41
67430;BME280;54298;52.076;5.264;2023-05-01T07:02:20;101436.0;;;12.81;60.13
67430;BME280;54298;52.076;5.264;2023-05-01T07:05:33;101433.0;;;12.9;59.92
67430;BME280;54298;52.076;5.264;2023-05-01T07:07:09;101434.0;;;12.94;59.49
67430;BME280;54298;52.076;5.264;2023-05-01T07:08:45;101440.0;;;13.0;59.97
67430;BME280;54298;52.076;5.264;2023-05-01T07:11:57;101439.0;;;13.09;59.76
67430;BME280;54298;52.076;5.264;2023-05-01T07:13:33;101439.0;;;13.19;58.91
67430;BME280;54298;52.076;5.264;2023-05-01T07:15:10;101438.0;;;13.12;59.5
67430;BME280;54298;52.076;5.264;2023-05-01T07:16:45;101440.0;;;13.24;59.16
67430;BME280;54298;52.076;5.264;2023-05-01T07:19:58;101437.0;;;13.28;59.3
67430;BME280;54298;52.076;5.264;2023-05-01T07:21:34;101440.0;;;13.32;59.46
67430;BME280;54298;52.076;5.264;2023-05-01T07:23:10;101439.0;;;13.43;59.07
67430;BME280;54298;52.076;5.264;2023-05-01T07:26:24;101438.0;;;13.45;58.59
67430;BME280;54298;52.076;5.264;2023-05-01T07:28:01;101437.0;;;13.36;58.2
67430;BME280;54298;52.076;5.264;2023-05-01T07:29:37;101438.0;;;13.37;58.42
67430;BME280;54298;52.076;5.264;2023-05-01T07:32:50;101439.0;;;13.44;58.65
67430;BME280;54298;52.076;5.264;2023-05-01T07:34:26;101439.0;;;13.3;59.22
67430;BME280;54298;52.076;5.264;2023-05-01T07:36:03;101437.0;;;13.18;59.82
67430;BME280;54298;52.076;5.264;2023-05-01T07:37:39;101441.0;;;13.36;58.83
67430;BME280;54298;52.076;5.264;2023-05-01T07:40:52;101442.0;;;13.26;59.03
67430;BME280;54298;52.076;5.264;2023-05-01T07:42:28;101445.0;;;13.35;58.82
67430;BME280;54298;52.076;5.264;2023-05-01T07:44:04;101441.0;;;13.25;58.82
67430;BME280;54298;52.076;5.264;2023-05-01T07:47:16;101443.0;;;13.28;59.2
67430;BME280;54298;52.076;5.264;2023-05-01T07:48:52;101445.0;;;13.22;59.36
67430;BME280;54298;52.076;5.264;2023-05-01T07:50:29;101443.0;;;13.18;59.45
67430;BME280;54298;52.076;5.264;2023-05-01T07:53:41;101440.0;;;13.23;59.77
67430;BME280;54298;52.076;5.264;2023-05-01T07:55:20;101433.0;;;13.45;58.7
67430;BME280;54298;52.076;5.264;2023-05-01T07:56:56;101439.0;;;13.35;58.68
67430;BME280;54298;52.076;5.264;2023-05-01T07:58:34;101439.0;;;13.31;60.24
67430;BME280;54298;52.076;5.264;2023-05-01T08:03:23;101437.0;;;13.46;59.29
67430;BME280;54298;52.076;5.264;2023-05-01T08:04:59;101443.0;;;13.44;58.5
67430;BME280;54298;52.076;5.264;2023-05-01T08:08:11;101442.0;;;13.49;58.26
67430;BME280;54298;52.076;5.264;2023-05-01T08:09:48;101447.0;;;13.47;58.72
67430;BME280;54298;52.076;5.264;2023-05-01T08:11:25;101447.0;;;13.54;59.53
67430;BME280;54298;52.076;5.264;2023-05-01T08:14:37;101449.0;;;13.49;58.89
67430;BME280;54298;52.076;5.264;2023-05-01T08:16:13;101451.0;;;13.6;60.06
67430;BME280;54298;52.076;5.264;2023-05-01T08:17:49;101448.0;;;13.7;59.59
67430;BME280;54298;52.076;5.264;2023-05-01T08:21:01;101447.0;;;13.74;59.47
67430;BME280;54298;52.076;5.264;2023-05-01T08:22:37;101441.0;;;13.81;58.34
67430;BME280;54298;52.076;5.264;2023-05-01T08:24:14;101443.0;;;13.82;58.94
67430;BME280;54298;52.076;5.264;2023-05-01T08:25:50;101443.0;;;14.01;58.59
67430;BME280;54298;52.076;5.264;2023-05-01T08:29:03;101443.0;;;13.99;58.75
67430;BME280;54298;52.076;5.264;2023-05-01T08:30:39;101442.0;;;14.02;57.59
67430;BME280;54298;52.076;5.264;2023-05-01T08:32:16;101442.0;;;13.99;57.08
67430;BME280;54298;52.076;5.264;2023-05-01T08:35:29;101444.0;;;13.95;57.39
67430;BME280;54298;52.076;5.264;2023-05-01T08:37:06;101447.0;;;13.95;57.53
67430;BME280;54298;52.076;5.264;2023-05-01T08:38:42;101449.0;;;13.97;58.79
67430;BME280;54298;52.076;5.264;2023-05-01T08:41:54;101445.0;;;14.19;57.58
67430;BME280;54298;52.076;5.264;2023-05-01T08:43:31;101448.0;;;14.1;58.11
67430;BME280;54298;52.076;5.264;2023-05-01T08:45:08;101448.0;;;14.12;58.04
67430;BME280;54298;52.076;5.264;2023-05-01T08:46:46;101448.0;;;14.27;57.54
67430;BME280;54298;52.076;5.264;2023-05-01T08:50:02;101448.0;;;14.38;56.74
67430;BME280;54298;52.076;5.264;2023-05-01T08:51:40;101446.0;;;14.22;56.8
67430;BME280;54298;52.076;5.264;2023-05-01T08:56:35;101440.0;;;14.49;56.27
67430;BME280;54298;52.076;5.264;2023-05-01T08:58:16;101444.0;;;14.76;54.62
67430;BME280;54298;52.076;5.264;2023-05-01T08:59:54;101441.0;;;14.78;54.92
67430;BME280;54298;52.076;5.264;2023-05-01T09:01:32;101441.0;;;14.59;55.22
67430;BME280;54298;52.076;5.264;2023-05-01T09:04:48;101445.0;;;14.73;54.37
67430;BME280;54298;52.076;5.264;2023-05-01T09:06:28;101445.0;;;14.8;55.16
67430;BME280;54298;52.076;5.264;2023-05-01T09:08:04;101446.0;;;14.91;54.84
67430;BME280;54298;52.076;5.264;2023-05-01T09:09:41;101444.0;;;15.03;55.33
67430;BME280;54298;52.076;5.264;2023-05-01T09:12:59;101444.0;;;15.19;54.06
67430;BME280;54298;52.076;5.264;2023-05-01T09:14:36;101446.0;;;15.21;54.02
67430;BME280;54298;52.076;5.264;2023-05-01T09:16:13;101449.0;;;15.32;54.16
67430;BME280;54298;52.076;5.264;2023-05-01T09:19:26;101450.0;;;15.39;53.77
67430;BME280;54298;52.076;5.264;2023-05-01T09:21:03;101450.0;;;15.54;52.93
67430;BME280;54298;52.076;5.264;2023-05-01T09:22:40;101452.0;;;15.6;51.73
67430;BME280;54298;52.076;5.264;2023-05-01T09:24:16;101446.0;;;15.7;51.75
67430;BME280;54298;52.076;5.264;2023-05-01T09:27:32;101447.0;;;15.77;51.7
67430;BME280;54298;52.076;5.264;2023-05-01T09:29:09;101444.0;;;15.83;50.74
67430;BME280;54298;52.076;5.264;2023-05-01T09:30:45;101448.0;;;15.89;50.51
67430;BME280;54298;52.076;5.264;2023-05-01T09:34:01;101452.0;;;15.87;51.44
67430;BME280;54298;52.076;5.264;2023-05-01T09:35:54;101452.0;;;15.94;51.22
67430;BME280;54298;52.076;5.264;2023-05-01T09:37:33;101453.0;;;15.92;49.36
67430;BME280;54298;52.076;5.264;2023-05-01T09:39:21;101452.0;;;16.0;49.97
67430;BME280;54298;52.076;5.264;2023-05-01T09:42:48;101453.0;;;16.0;49.39
67430;BME280;54298;52.076;5.264;2023-05-01T09:44:24;101455.0;;;16.04;49.99
67430;BME280;54298;52.076;5.264;2023-05-01T09:46:02;101451.0;;;16.05;49.79
67430;BME280;54298;52.076;5.264;2023-05-01T09:47:39;101449.0;;;16.15;48.94
67430;BME280;54298;52.076;5.264;2023-05-01T09:50:52;101444.0;;;16.36;49.15
67430;BME280;54298;52.076;5.264;2023-05-01T09:52:29;101447.0;;;16.38;48.99
67430;BME280;54298;52.076;5.264;2023-05-01T09:54:16;101447.0;;;16.48;48.8
67430;BME280;54298;52.076;5.264;2023-05-01T09:55:59;101447.0;;;16.59;49.13
67430;BME280;54298;52.076;5.264;2023-05-01T09:59:15;101447.0;;;16.8;48.92
67430;BME280;54298;52.076;5.264;2023-05-01T10:00:52;101447.0;;;16.84;46.19
67430;BME280;54298;52.076;5.264;2023-05-01T10:02:29;101447.0;;;16.95;46.75
67430;BME280;54298;52.076;5.264;2023-05-01T10:04:05;101445.0;;;17.16;46.98
67430;BME280;54298;52.076;5.264;2023-05-01T10:07:19;101450.0;;;17.27;47.03
67430;BME280;54298;52.076;5.264;2023-05-01T10:08:55;101445.0;;;17.25;45.17
67430;BME280;54298;52.076;5.264;2023-05-01T10:10:31;101450.0;;;17.3;45.61
67430;BME280;54298;52.076;5.264;2023-05-01T10:13:44;101452.0;;;17.52;46.08
67430;BME280;54298;52.076;5.264;2023-05-01T10:15:20;101450.0;;;17.66;44.9
67430;BME280;54298;52.076;5.264;2023-05-01T10:16:56;101455.0;;;17.64;43.92
67430;BME280;54298;52.076;5.264;2023-05-01T10:20:10;101455.0;;;17.7;43.45
67430;BME280;54298;52.076;5.264;2023-05-01T10:21:48;101461.0;;;17.54;43.32
67430;BME280;54298;52.076;5.264;2023-05-01T10:23:24;101462.0;;;17.53;43.18
67430;BME280;54298;52.076;5.264;2023-05-01T10:25:01;101461.0;;;17.43;44.07
67430;BME280;54298;52.076;5.264;2023-05-01T10:28:19;101465.0;;;17.56;44.42
67430;BME280;54298;52.076;5.264;2023-05-01T10:29:56;101463.0;;;17.36;42.81
67430;BME280;54298;52.076;5.264;2023-05-01T10:31:32;101467.0;;;17.37;42.18
67430;BME280;54298;52.076;5.264;2023-05-01T10:34:50;101470.0;;;17.5;42.57
67430;BME280;54298;52.076;5.264;2023-05-01T10:36:36;101467.0;;;17.45;43.02
67430;BME280;54298;52.076;5.264;2023-05-01T10:38:21;101473.0;;;17.54;43.1
67430;BME280;54298;52.076;5.264;2023-05-01T10:39:58;101471.0;;;17.56;42.47
67430;BME280;54298;52.076;5.264;2023-05-01T10:43:44;101474.0;;;17.59;42.63
67430;BME280;54298;52.076;5.264;2023-05-01T10:45:28;101475.0;;;17.59;41.76
67430;BME280;54298;52.076;5.264;2023-05-01T10:48:10;101475.0;;;17.63;42.69
67430;BME280;54298;52.076;5.264;2023-05-01T10:50:02;101480.0;;;17.59;43.46
67430;BME280;54298;52.076;5.264;2023-05-01T10:51:57;101478.0;;;17.68;43.48
67430;BME280;54298;52.076;5.264;2023-05-01T10:53:34;101477.0;;;17.72;43.32
67430;BME280;54298;52.076;5.264;2023-05-01T10:55:31;101477.0;;;17.66;43.67
67430;BME280;54298;52.076;5.264;2023-05-01T10:57:40;101480.0;;;17.68;42.5
67430;BME280;54298;52.076;5.264;2023-05-01T10:59:17;101483.0;;;17.66;45.26
67430;BME280;54298;52.076;5.264;2023-05-01T11:01:26;101477.0;;;17.61;46.46
67430;BME280;54298;52.076;5.264;2023-05-01T11:03:36;101481.0;;;17.59;47.44
67430;BME280;54298;52.076;5.264;2023-05-01T11:05:12;101477.0;;;17.59;47.62
67430;BME280;54298;52.076;5.264;2023-05-01T11:07:13;101476.0;;;17.5;47.91
67430;BME280;54298;52.076;5.264;2023-05-01T11:10:26;101478.0;;;17.55;47.68
67430;BME280;54298;52.076;5.264;2023-05-01T11:12:02;101483.0;;;17.71;47.48
67430;BME280;54298;52.076;5.264;2023-05-01T11:13:55;101478.0;;;17.66;47.6
67430;BME280;54298;52.076;5.264;2023-05-01T11:15:32;101480.0;;;17.75;47.27
67430;BME280;54298;52.076;5.264;2023-05-01T11:18:45;101483.0;;;17.61;47.77